createdAt,value
2019-02-17T00:02:09.623Z,99605.03
2019-02-17T00:04:38.760Z,99596.03
2019-02-17T00:07:07.870Z,99605.77
2019-02-17T00:09:36.997Z,99601.62
2019-02-17T00:12:06.270Z,99606.22
2019-02-17T00:14:35.407Z,99602.15
2019-02-17T00:17:04.579Z,99608.84
2019-02-17T00:19:33.711Z,99603.39
2019-02-17T00:22:02.927Z,99601.62
2019-02-17T00:24:32.148Z,99602.08
2019-02-17T00:27:01.250Z,99603.60
2019-02-17T00:29:30.389Z,99603.58
2019-02-17T00:31:59.756Z,99605.09
2019-02-17T00:34:29.308Z,99602.53
2019-02-17T00:36:58.757Z,99607.05
2019-02-17T00:39:27.907Z,99606.99
2019-02-17T00:41:57.035Z,99602.99
2019-02-17T00:44:26.193Z,99604.94
2019-02-17T00:46:55.648Z,99609.73
2019-02-17T00:49:24.829Z,99607.33
2019-02-17T00:51:53.944Z,99612.16
2019-02-17T00:54:23.087Z,99613.95
2019-02-17T00:56:52.204Z,99619.20
2019-02-17T00:59:21.355Z,99621.03
2019-02-17T01:01:50.513Z,99616.37
2019-02-17T01:04:19.672Z,99618.17
2019-02-17T01:06:48.834Z,99611.38
2019-02-17T01:09:18.276Z,99607.90
2019-02-17T01:11:47.507Z,99602.78
2019-02-17T01:14:16.767Z,99614.59
2019-02-17T01:16:45.854Z,99609.01
2019-02-17T01:19:15.541Z,99608.75
2019-02-17T01:21:44.664Z,99610.20
2019-02-17T01:24:13.782Z,99606.35
2019-02-17T01:26:42.955Z,99605.44
2019-02-17T01:29:20.119Z,99608.12
2019-02-17T01:31:42.999Z,99606.70
2019-02-17T01:34:12.421Z,99606.94
2019-02-17T01:36:41.568Z,99601.19
2019-02-17T01:39:10.709Z,99601.63
2019-02-17T01:41:39.812Z,99601.35
2019-02-17T01:44:08.934Z,99598.73
2019-02-17T01:46:38.619Z,99601.67
2019-02-17T01:49:07.832Z,99598.08
2019-02-17T01:51:36.946Z,99594.80
2019-02-17T01:54:06.055Z,99594.61
2019-02-17T01:56:35.231Z,99590.55
2019-02-17T01:59:04.451Z,99589.66
2019-02-17T02:01:33.599Z,99590.08
2019-02-17T02:04:02.697Z,99586.97
2019-02-17T02:06:31.845Z,99581.41
2019-02-17T02:09:00.972Z,99577.76
2019-02-17T02:11:30.133Z,99572.28
2019-02-17T02:13:59.309Z,99570.50
2019-02-17T02:16:28.454Z,99567.15
2019-02-17T02:18:57.589Z,99567.03
2019-02-17T02:21:26.741Z,99561.90
2019-02-17T02:23:55.887Z,99558.48
2019-02-17T02:26:25.193Z,99559.95
2019-02-17T02:28:54.336Z,99554.14
2019-02-17T02:31:23.467Z,99549.28
2019-02-17T02:33:52.616Z,99549.89
2019-02-17T02:36:21.763Z,99553.83
2019-02-17T02:38:50.902Z,99550.69
2019-02-17T02:41:20.028Z,99544.83
2019-02-17T02:43:49.167Z,99544.23
2019-02-17T02:46:18.299Z,99543.11
2019-02-17T02:48:47.508Z,99546.59
2019-02-17T02:51:16.628Z,99548.86
2019-02-17T02:53:46.226Z,99546.48
2019-02-17T02:56:15.848Z,99540.94
2019-02-17T02:58:45.103Z,99535.55
2019-02-17T03:01:14.452Z,99534.20
2019-02-17T03:03:46.026Z,99536.89
2019-02-17T03:06:27.539Z,99537.51
2019-02-17T03:08:56.670Z,99535.78
2019-02-17T03:11:25.790Z,99531.80
2019-02-17T03:13:54.932Z,99532.36
2019-02-17T03:16:24.113Z,99524.22
2019-02-17T03:18:53.537Z,99519.92
2019-02-17T03:21:22.697Z,99523.66
2019-02-17T03:23:51.816Z,99520.37
2019-02-17T03:26:20.982Z,99519.03
2019-02-17T03:28:50.108Z,99523.94
2019-02-17T03:31:19.265Z,99524.83
2019-02-17T03:33:48.372Z,99524.03
2019-02-17T03:36:17.544Z,99522.17
2019-02-17T03:38:46.705Z,99522.84
2019-02-17T03:41:17.002Z,99516.95
2019-02-17T03:43:46.177Z,99519.41
2019-02-17T03:46:15.393Z,99518.52
2019-02-17T03:48:44.740Z,99515.81
2019-02-17T03:51:15.368Z,99524.77
2019-02-17T03:53:44.549Z,99516.91
2019-02-17T03:56:13.714Z,99516.08
2019-02-17T03:58:42.841Z,99509.69
2019-02-17T04:01:11.972Z,99506.22
2019-02-17T04:03:41.104Z,99509.98
2019-02-17T04:06:10.197Z,99506.44
2019-02-17T04:08:39.365Z,99511.34
2019-02-17T04:11:08.498Z,99512.83
2019-02-17T04:13:38.100Z,99513.94
2019-02-17T04:16:07.287Z,99518.88
2019-02-17T04:18:36.462Z,99514.80
2019-02-17T04:21:05.587Z,99518.44
2019-02-17T04:23:34.711Z,99515.38
2019-02-17T04:26:03.863Z,99518.27
2019-02-17T04:28:33.019Z,99515.14
2019-02-17T04:31:02.747Z,99511.89
2019-02-17T04:33:31.933Z,99513.52
2019-02-17T04:36:01.319Z,99512.89
2019-02-17T04:38:30.476Z,99515.36
2019-02-17T04:40:59.597Z,99512.92
2019-02-17T04:43:28.775Z,99510.12
2019-02-17T04:45:58.010Z,99511.50
2019-02-17T04:48:27.144Z,99515.98
2019-02-17T04:50:56.282Z,99511.95
2019-02-17T04:53:25.463Z,99513.59
2019-02-17T04:55:54.638Z,99512.83
2019-02-17T04:58:24.111Z,99504.19
2019-02-17T05:00:53.234Z,99509.11
2019-02-17T05:03:22.509Z,99503.41
2019-02-17T05:05:51.655Z,99504.16
2019-02-17T05:08:20.840Z,99496.70
2019-02-17T05:10:50.029Z,99498.81
2019-02-17T05:13:19.179Z,99496.80
2019-02-17T05:15:48.347Z,99496.63
2019-02-17T05:18:17.982Z,99490.03
2019-02-17T05:20:47.096Z,99493.89
2019-02-17T05:23:16.363Z,99499.30
2019-02-17T05:25:45.500Z,99496.57
2019-02-17T05:28:14.655Z,99497.03
2019-02-17T05:30:52.118Z,99499.14
2019-02-17T05:33:15.106Z,99495.05
2019-02-17T05:35:44.228Z,99496.11
2019-02-17T05:38:13.741Z,99499.81
2019-02-17T05:40:42.939Z,99501.23
2019-02-17T05:43:12.365Z,99504.48
2019-02-17T05:45:41.567Z,99500.77
2019-02-17T05:48:10.720Z,99496.23
2019-02-17T05:50:40.168Z,99496.41
2019-02-17T05:53:09.338Z,99495.55
2019-02-17T05:55:38.899Z,99495.83
2019-02-17T05:58:08.069Z,99495.16
2019-02-17T06:00:38.565Z,99498.80
2019-02-17T06:03:07.750Z,99501.70
2019-02-17T06:05:36.892Z,99506.09
2019-02-17T06:08:06.028Z,99496.34
2019-02-17T06:10:35.273Z,99500.05
2019-02-17T06:13:04.821Z,99506.89
2019-02-17T06:15:33.976Z,99502.08
2019-02-17T06:18:03.097Z,99506.31
2019-02-17T06:20:32.234Z,99510.34
2019-02-17T06:23:01.424Z,99509.72
2019-02-17T06:25:30.608Z,99504.67
2019-02-17T06:27:59.735Z,99501.56
2019-02-17T06:30:28.903Z,99505.50
2019-02-17T06:32:58.019Z,99506.60
2019-02-17T06:35:27.242Z,99510.83
2019-02-17T06:37:56.450Z,99515.31
2019-02-17T06:40:25.612Z,99514.41
2019-02-17T06:42:54.817Z,99513.50
2019-02-17T06:45:23.976Z,99512.97
2019-02-17T06:47:53.071Z,99510.19
2019-02-17T06:50:22.256Z,99513.09
2019-02-17T06:52:51.404Z,99519.81
2019-02-17T06:55:27.388Z,99519.70
2019-02-17T06:57:56.929Z,99519.31
2019-02-17T07:00:31.511Z,99526.83
2019-02-17T07:03:00.877Z,99524.33
2019-02-17T07:05:48.939Z,99526.36
2019-02-17T07:08:18.090Z,99523.34
2019-02-17T07:10:47.256Z,99521.31
2019-02-17T07:13:16.371Z,99518.84
2019-02-17T07:15:45.802Z,99530.19
2019-02-17T07:18:15.558Z,99522.11
2019-02-17T07:20:49.110Z,99529.16
2019-02-17T07:23:18.384Z,99523.20
2019-02-17T07:25:47.663Z,99529.16
2019-02-17T07:28:16.984Z,99529.50
2019-02-17T07:30:46.323Z,99529.45
2019-02-17T07:33:15.442Z,99529.48
2019-02-17T07:35:44.718Z,99528.57
2019-02-17T07:38:13.835Z,99535.70
2019-02-17T07:40:42.989Z,99529.48
2019-02-17T07:43:12.201Z,99527.59
2019-02-17T07:45:41.426Z,99533.30
2019-02-17T07:48:10.623Z,99526.77
2019-02-17T07:50:39.838Z,99520.10
2019-02-17T07:53:08.951Z,99527.47
2019-02-17T07:55:38.204Z,99520.91
2019-02-17T07:58:07.295Z,99516.20
2019-02-17T08:00:36.541Z,99521.33
2019-02-17T08:03:05.655Z,99505.03
2019-02-17T08:05:34.873Z,99511.32
2019-02-17T08:08:04.167Z,99508.56
2019-02-17T08:10:33.339Z,99511.55
2019-02-17T08:13:02.605Z,99506.69
2019-02-17T08:15:31.727Z,99504.48
2019-02-17T08:18:00.871Z,99499.95
2019-02-17T08:20:30.005Z,99498.98
2019-02-17T08:22:59.140Z,99494.55
2019-02-17T08:25:28.261Z,99493.77
2019-02-17T08:27:57.513Z,99493.41
2019-02-17T08:30:26.647Z,99486.40
2019-02-17T08:32:56.205Z,99492.72
2019-02-17T08:35:25.379Z,99493.13
2019-02-17T08:37:54.590Z,99488.62
2019-02-17T08:40:23.769Z,99486.62
2019-02-17T08:42:52.929Z,99479.31
2019-02-17T08:45:22.428Z,99479.23
2019-02-17T08:47:51.604Z,99482.02
2019-02-17T08:50:20.792Z,99482.84
2019-02-17T08:52:50.036Z,99475.44
2019-02-17T08:55:19.219Z,99475.13
2019-02-17T08:57:48.439Z,99481.29
2019-02-17T09:00:17.677Z,99480.02
2019-02-17T09:02:52.867Z,99480.86
2019-02-17T09:05:22.111Z,99479.27
2019-02-17T09:07:51.374Z,99474.50
2019-02-17T09:10:20.593Z,99474.23
2019-02-17T09:12:49.941Z,99470.53
2019-02-17T09:15:19.196Z,99473.41
2019-02-17T09:17:48.502Z,99473.09
2019-02-17T09:20:18.185Z,99470.62
2019-02-17T09:22:47.440Z,99467.69
2019-02-17T09:25:16.579Z,99467.94
2019-02-17T09:27:45.807Z,99461.43
2019-02-17T09:30:16.258Z,99465.06
2019-02-17T09:32:45.468Z,99470.41
2019-02-17T09:35:14.675Z,99468.33
2019-02-17T09:37:43.906Z,99462.88
2019-02-17T09:40:13.143Z,99467.03
2019-02-17T09:42:42.339Z,99464.41
2019-02-17T09:45:12.843Z,99463.75
2019-02-17T09:47:42.054Z,99453.14
2019-02-17T09:50:12.434Z,99454.02
2019-02-17T09:52:41.633Z,99451.91
2019-02-17T09:55:10.850Z,99448.33
2019-02-17T09:57:40.251Z,99452.58
2019-02-17T10:00:11.156Z,99458.58
2019-02-17T10:02:40.460Z,99450.98
2019-02-17T10:05:09.678Z,99443.38
2019-02-17T10:07:39.162Z,99451.31
2019-02-17T10:10:12.866Z,99447.05
2019-02-17T10:12:42.133Z,99443.31
2019-02-17T10:15:12.437Z,99443.69
2019-02-17T10:17:41.960Z,99441.88
2019-02-17T10:20:11.464Z,99439.88
2019-02-17T10:22:40.700Z,99441.15
2019-02-17T10:25:10.093Z,99441.67
2019-02-17T10:27:39.384Z,99441.94
2019-02-17T10:30:10.695Z,99436.27
2019-02-17T10:32:39.946Z,99431.99
2019-02-17T10:35:09.221Z,99431.59
2019-02-17T10:37:38.450Z,99425.39
2019-02-17T10:40:09.535Z,99427.55
2019-02-17T10:42:38.771Z,99420.02
2019-02-17T10:45:08.985Z,99418.48
2019-02-17T10:47:38.283Z,99418.16
2019-02-17T10:50:08.301Z,99412.33
2019-02-17T10:52:37.787Z,99414.59
2019-02-17T10:55:07.472Z,99401.17
2019-02-17T10:57:36.713Z,99390.31
2019-02-17T11:00:08.390Z,99394.91
2019-02-17T11:02:46.841Z,99392.22
2019-02-17T11:05:08.562Z,99382.30
2019-02-17T11:07:37.739Z,99389.93
2019-02-17T11:10:08.994Z,99381.69
2019-02-17T11:12:38.294Z,99381.69
2019-02-17T11:15:09.659Z,99382.55
2019-02-17T11:17:38.910Z,99369.84
2019-02-17T11:20:08.314Z,99373.67
2019-02-17T11:22:37.583Z,99367.48
2019-02-17T11:25:06.888Z,99369.17
2019-02-17T11:27:36.088Z,99369.85
2019-02-17T11:30:07.633Z,99365.42
2019-02-17T11:32:36.761Z,99365.42
2019-02-17T11:35:06.187Z,99363.73
2019-02-17T11:37:35.583Z,99357.44
2019-02-17T11:40:07.601Z,99344.89
2019-02-17T11:42:47.279Z,99344.89
2019-02-17T11:45:17.767Z,99349.52
2019-02-17T11:47:47.227Z,99344.19
2019-02-17T11:50:18.729Z,99341.16
2019-02-17T11:52:48.048Z,99341.02
2019-02-17T11:55:17.404Z,99338.09
2019-02-17T11:57:46.539Z,99337.48
2019-02-17T12:00:17.672Z,99341.38
2019-02-17T12:02:47.439Z,99343.28
2019-02-17T12:05:17.134Z,99334.20
2019-02-17T12:07:46.357Z,99331.16
2019-02-17T12:10:15.623Z,99329.56
2019-02-17T12:12:45.143Z,99323.95
2019-02-17T12:15:14.697Z,99319.75
2019-02-17T12:17:47.376Z,99322.48
2019-02-17T12:20:36.286Z,99321.02
2019-02-17T12:23:09.507Z,99324.05
2019-02-17T12:25:43.278Z,99324.17
2019-02-17T12:28:31.363Z,99317.72
2019-02-17T12:31:00.481Z,99307.92
2019-02-17T12:33:29.615Z,99315.58
2019-02-17T12:35:59.240Z,99308.45
2019-02-17T12:38:28.463Z,99311.25
2019-02-17T12:40:57.745Z,99301.34
2019-02-17T12:43:26.871Z,99299.30
2019-02-17T12:45:59.038Z,99291.22
2019-02-17T12:48:28.211Z,99288.55
2019-02-17T12:50:57.433Z,99284.45
2019-02-17T12:53:26.656Z,99287.53
2019-02-17T12:55:55.838Z,99278.52
2019-02-17T12:58:29.977Z,99276.12
2019-02-17T13:00:55.853Z,99274.06
2019-02-17T13:03:28.424Z,99277.80
2019-02-17T13:05:55.852Z,99274.06
2019-02-17T13:08:25.099Z,99276.94
2019-02-17T13:10:55.270Z,99267.08
2019-02-17T13:13:24.536Z,99267.45
2019-02-17T13:15:53.804Z,99266.95
2019-02-17T13:18:23.216Z,99266.69
2019-02-17T13:20:52.615Z,99265.75
2019-02-17T13:23:21.794Z,99262.36
2019-02-17T13:25:51.066Z,99259.77
2019-02-17T13:28:20.479Z,99256.86
2019-02-17T13:30:49.592Z,99245.20
2019-02-17T13:33:18.716Z,99245.98
2019-02-17T13:35:47.856Z,99247.05
2019-02-17T13:38:16.981Z,99238.50
2019-02-17T13:40:46.265Z,99238.05
2019-02-17T13:43:15.352Z,99241.97
2019-02-17T13:45:44.967Z,99240.41
2019-02-17T13:48:14.135Z,99239.90
2019-02-17T13:50:44.415Z,99233.70
2019-02-17T13:53:13.774Z,99234.87
2019-02-17T13:55:48.173Z,99231.84
2019-02-17T13:58:17.406Z,99237.19
2019-02-17T14:00:46.599Z,99225.01
2019-02-17T14:03:15.733Z,99223.25
2019-02-17T14:05:44.901Z,99220.57
2019-02-17T14:08:14.030Z,99217.52
2019-02-17T14:10:43.407Z,99208.02
2019-02-17T14:13:12.582Z,99205.19
2019-02-17T14:15:41.729Z,99206.82
2019-02-17T14:18:10.859Z,99203.78
2019-02-17T14:20:40.093Z,99200.69
2019-02-17T14:23:09.222Z,99191.59
2019-02-17T14:25:38.485Z,99191.19
2019-02-17T14:28:07.909Z,99180.10
2019-02-17T14:30:37.097Z,99179.28
2019-02-17T14:33:06.330Z,99184.19
2019-02-17T14:35:35.546Z,99180.63
2019-02-17T14:38:04.727Z,99178.36
2019-02-17T14:40:33.943Z,99176.61
2019-02-17T14:43:03.144Z,99173.37
2019-02-17T14:45:32.388Z,99174.15
2019-02-17T14:48:01.536Z,99170.70
2019-02-17T14:50:30.759Z,99169.80
2019-02-17T14:52:59.908Z,99172.75
2019-02-17T14:55:29.093Z,99168.38
2019-02-17T14:58:05.010Z,99163.88
2019-02-17T15:00:29.197Z,99163.59
2019-02-17T15:02:58.405Z,99163.39
2019-02-17T15:05:27.558Z,99157.88
2019-02-17T15:07:56.790Z,99158.48
2019-02-17T15:10:26.030Z,99156.22
2019-02-17T15:12:55.363Z,99150.10
2019-02-17T15:15:25.100Z,99155.37
2019-02-17T15:17:54.465Z,99155.66
2019-02-17T15:20:23.917Z,99155.17
2019-02-17T15:22:53.115Z,99153.48
2019-02-17T15:25:22.310Z,99148.41
2019-02-17T15:27:51.554Z,99144.97
2019-02-17T15:30:20.734Z,99147.36
2019-02-17T15:32:49.925Z,99152.14
2019-02-17T15:35:19.051Z,99146.48
2019-02-17T15:37:48.419Z,99143.55
2019-02-17T15:40:17.963Z,99145.70
2019-02-17T15:42:47.242Z,99144.47
2019-02-17T15:45:16.479Z,99141.50
2019-02-17T15:47:45.969Z,99138.44
2019-02-17T15:50:15.200Z,99132.39
2019-02-17T15:52:44.440Z,99130.27
2019-02-17T15:55:13.661Z,99129.27
2019-02-17T15:57:43.132Z,99125.72
2019-02-17T16:00:13.410Z,99125.50
2019-02-17T16:02:42.632Z,99118.88
2019-02-17T16:05:11.929Z,99120.20
2019-02-17T16:07:41.180Z,99119.36
2019-02-17T16:10:10.988Z,99115.19
2019-02-17T16:12:40.235Z,99116.15
2019-02-17T16:15:11.902Z,99113.44
2019-02-17T16:17:41.266Z,99115.02
2019-02-17T16:20:12.081Z,99114.12
2019-02-17T16:22:41.278Z,99110.95
2019-02-17T16:25:10.507Z,99113.91
2019-02-17T16:27:39.708Z,99114.93
2019-02-17T16:30:11.833Z,99115.58
2019-02-17T16:32:41.039Z,99123.85
2019-02-17T16:35:10.212Z,99117.67
2019-02-17T16:37:39.429Z,99117.67
2019-02-17T16:40:10.657Z,99120.91
2019-02-17T16:42:40.078Z,99116.77
2019-02-17T16:45:10.801Z,99112.88
2019-02-17T16:47:40.575Z,99121.83
2019-02-17T16:50:12.044Z,99119.00
2019-02-17T16:52:41.363Z,99123.17
2019-02-17T16:55:11.250Z,99124.14
2019-02-17T16:57:40.535Z,99130.25
2019-02-17T17:00:11.826Z,99145.95
2019-02-17T17:02:41.104Z,99141.30
2019-02-17T17:05:10.442Z,99141.30
2019-02-17T17:07:39.639Z,99138.76
2019-02-17T17:10:09.203Z,99140.44
2019-02-17T17:12:38.413Z,99143.88
2019-02-17T17:15:07.759Z,99143.88
2019-02-17T17:17:37.006Z,99144.20
2019-02-17T17:20:07.447Z,99144.20
2019-02-17T17:22:36.627Z,99142.13
2019-02-17T17:25:06.256Z,99136.13
2019-02-17T17:27:35.473Z,99147.56
2019-02-17T17:30:05.321Z,99148.27
2019-02-17T17:32:34.574Z,99150.08
2019-02-17T17:35:03.850Z,99153.45
2019-02-17T17:37:33.138Z,99160.91
2019-02-17T17:40:02.386Z,99165.21
2019-02-17T17:42:31.628Z,99157.42
2019-02-17T17:45:00.885Z,99155.24
2019-02-17T17:47:31.268Z,99155.52
2019-02-17T17:50:00.536Z,99161.08
2019-02-17T17:52:30.276Z,99164.09
2019-02-17T17:54:59.567Z,99161.08
2019-02-17T17:57:28.984Z,99161.87
2019-02-17T17:59:58.354Z,99153.05
2019-02-17T18:02:27.593Z,99162.58
2019-02-17T18:04:56.898Z,99158.47
2019-02-17T18:07:26.327Z,99155.52
2019-02-17T18:09:55.727Z,99154.16
2019-02-17T18:12:25.156Z,99158.20
2019-02-17T18:14:54.426Z,99162.66
2019-02-17T18:17:23.700Z,99158.52
2019-02-17T18:19:52.963Z,99160.38
2019-02-17T18:22:22.218Z,99162.31
2019-02-17T18:24:51.521Z,99157.06
2019-02-17T18:27:20.725Z,99156.66
2019-02-17T18:29:50.047Z,99156.48
2019-02-17T18:32:19.270Z,99156.97
2019-02-17T18:34:49.459Z,99159.25
2019-02-17T18:37:39.415Z,99157.45
2019-02-17T18:40:44.682Z,99150.86
2019-02-17T18:43:17.599Z,99151.69
2019-02-17T18:46:14.024Z,99153.95
2019-02-17T18:48:52.356Z,99158.12
2019-02-17T18:51:44.262Z,99164.24
2019-02-17T18:54:50.547Z,99164.05
2019-02-17T18:57:16.040Z,99167.83
2019-02-17T18:59:45.291Z,99166.32
2019-02-17T19:02:14.509Z,99166.77
2019-02-17T19:04:43.764Z,99169.46
2019-02-17T19:07:13.041Z,99171.54
2019-02-17T19:09:42.303Z,99171.16
2019-02-17T19:12:11.576Z,99171.02
2019-02-17T19:14:40.863Z,99170.08
2019-02-17T19:17:10.065Z,99168.41
2019-02-17T19:19:39.802Z,99172.70
2019-02-17T19:22:08.971Z,99170.56
2019-02-17T19:24:38.112Z,99162.67
2019-02-17T19:27:07.230Z,99167.20
2019-02-17T19:29:36.457Z,99165.59
2019-02-17T19:32:05.662Z,99163.42
2019-02-17T19:34:34.919Z,99168.77
2019-02-17T19:37:04.320Z,99165.79
2019-02-17T19:39:33.454Z,99173.62
2019-02-17T19:42:02.749Z,99175.97
2019-02-17T19:44:31.906Z,99171.74
2019-02-17T19:47:01.180Z,99173.73
2019-02-17T19:49:30.529Z,99164.64
2019-02-17T19:51:59.859Z,99178.25
2019-02-17T19:54:29.105Z,99175.98
2019-02-17T19:56:58.453Z,99179.25
2019-02-17T19:59:27.761Z,99177.56
2019-02-17T20:01:57.015Z,99179.82
2019-02-17T20:04:43.491Z,99186.22
2019-02-17T20:07:12.761Z,99186.13
2019-02-17T20:09:42.138Z,99178.97
2019-02-17T20:12:11.430Z,99179.08
2019-02-17T20:14:40.758Z,99182.95
2019-02-17T20:17:10.019Z,99180.63
2019-02-17T20:19:39.588Z,99184.75
2019-02-17T20:22:08.851Z,99179.52
2019-02-17T20:24:38.184Z,99183.94
2019-02-17T20:27:07.457Z,99180.28
2019-02-17T20:29:36.751Z,99190.52
2019-02-17T20:32:06.001Z,99191.55
2019-02-17T20:34:35.339Z,99195.25
2019-02-17T20:37:04.537Z,99197.36
2019-02-17T20:39:33.759Z,99199.50
2019-02-17T20:42:02.990Z,99195.28
2019-02-17T20:44:32.195Z,99195.03
2019-02-17T20:47:01.417Z,99190.16
2019-02-17T20:49:30.672Z,99191.45
2019-02-17T20:51:59.867Z,99194.50
2019-02-17T20:54:28.963Z,99188.08
2019-02-17T20:56:58.278Z,99193.20
2019-02-17T20:59:27.391Z,99192.67
2019-02-17T21:01:56.554Z,99197.09
2019-02-17T21:04:25.676Z,99196.75
2019-02-17T21:06:54.822Z,99194.98
2019-02-17T21:09:23.915Z,99200.97
2019-02-17T21:11:53.114Z,99197.54
2019-02-17T21:14:22.249Z,99197.23
2019-02-17T21:16:51.383Z,99194.98
2019-02-17T21:19:20.658Z,99193.19
2019-02-17T21:21:49.808Z,99198.92
2019-02-17T21:24:18.919Z,99194.13
2019-02-17T21:26:48.070Z,99191.31
2019-02-17T21:29:17.248Z,99197.06
2019-02-17T21:31:46.928Z,99195.13
2019-02-17T21:34:16.112Z,99196.52
2019-02-17T21:36:45.275Z,99199.09
2019-02-17T21:39:14.380Z,99194.26
2019-02-17T21:41:43.682Z,99197.33
2019-02-17T21:44:12.831Z,99198.33
2019-02-17T21:46:41.927Z,99196.86
2019-02-17T21:49:11.067Z,99200.66
2019-02-17T21:51:40.215Z,99193.61
2019-02-17T21:54:09.356Z,99193.53
2019-02-17T21:56:38.502Z,99190.63
2019-02-17T21:59:07.726Z,99185.44
2019-02-17T22:01:36.851Z,99185.21
2019-02-17T22:04:06.003Z,99188.92
2019-02-17T22:06:35.170Z,99190.20
2019-02-17T22:09:05.036Z,99185.33
2019-02-17T22:11:34.215Z,99187.14
2019-02-17T22:14:03.477Z,99186.37
2019-02-17T22:16:32.611Z,99190.39
2019-02-17T22:19:01.899Z,99191.52
2019-02-17T22:21:31.367Z,99185.25
2019-02-17T22:24:00.512Z,99189.46
2019-02-17T22:26:29.652Z,99188.06
2019-02-17T22:28:59.008Z,99191.59
2019-02-17T22:31:28.116Z,99188.53
2019-02-17T22:33:57.294Z,99191.47
2019-02-17T22:36:26.428Z,99189.08
2019-02-17T22:38:58.842Z,99188.69
2019-02-17T22:41:28.406Z,99185.82
2019-02-17T22:43:57.599Z,99180.56
2019-02-17T22:46:27.100Z,99183.66
2019-02-17T22:48:56.270Z,99179.84
2019-02-17T22:51:25.409Z,99188.17
2019-02-17T22:53:54.523Z,99185.70
2019-02-17T22:56:23.697Z,99188.66
2019-02-17T22:58:52.849Z,99187.95
2019-02-17T23:01:26.674Z,99193.53
2019-02-17T23:03:55.825Z,99190.09
2019-02-17T23:06:24.930Z,99192.58
2019-02-17T23:08:54.122Z,99188.27
2019-02-17T23:11:23.300Z,99189.75
2019-02-17T23:13:52.421Z,99185.47
2019-02-17T23:16:21.569Z,99186.34
2019-02-17T23:18:50.680Z,99179.05
2019-02-17T23:21:19.826Z,99181.01
2019-02-17T23:23:49.098Z,99179.67
2019-02-17T23:26:18.222Z,99184.69
2019-02-17T23:28:47.388Z,99181.38
2019-02-17T23:31:18.843Z,99179.77
2019-02-17T23:33:48.060Z,99178.13
2019-02-17T23:36:17.188Z,99184.41
2019-02-17T23:38:46.331Z,99179.98
2019-02-17T23:41:15.451Z,99180.06
2019-02-17T23:43:44.630Z,99188.26
2019-02-17T23:46:13.757Z,99190.34
2019-02-17T23:48:43.066Z,99190.88
2019-02-17T23:51:12.210Z,99182.39
2019-02-17T23:53:41.355Z,99186.13
2019-02-17T23:56:10.531Z,99188.26
2019-02-17T23:58:40.112Z,99184.84
